Time;durP1;ratioP1;P1;durP2;ratioP2;P2;SDS_P1;SDS_P2;PMS_P1;PMS_P2;Temp;Humidity;BMP_temperature;BMP_pressure;BME280_temperature;BME280_humidity;BME280_pressure;Samples;Min_cycle;Max_cycle;Signal;HPM_P1;HPM_P2
2021/10/03 05:17:09;;;;;;;;;;;;;;;10.62;66.26;100526.59;5676010;23;1638;-60
2021/10/03 05:19:36;;;;;;;;;;;;;;;10.74;65.79;100527.44;5012571;28;1918;-60
2021/10/03 05:22:04;;;;;;;;;;;;;;;10.84;65.82;100529.50;5013549;28;743;-60
2021/10/03 05:24:30;;;;;;;;;;;;;;;10.96;65.17;100536.66;5012937;28;819;-60
2021/10/03 05:39:07;;;;;;;;;;;;;;;11.44;62.90;100547.53;5012638;28;598;-60
2021/10/03 05:44:55;;;;;;;;;;;;;;;11.57;62.22;100548.75;5012268;28;641;-60
2021/10/03 05:47:26;;;;;;;;;;;;;;;11.65;62.04;100546.81;5012108;28;853;-60
2021/10/03 06:02:04;;;;;;;;;;;;;;;12.86;59.31;100546.03;5012345;28;688;-61
2021/10/03 06:07:43;;;;;;;;;;;;;;;13.37;57.39;100551.47;5001774;28;991;-60
2021/10/03 06:10:10;;;;;;;;;;;;;;;13.41;56.99;100558.56;5011919;28;945;-60
2021/10/03 06:15:42;;;;;;;;;;;;;;;13.54;56.74;100567.25;5011796;28;614;-60
2021/10/03 06:21:18;;;;;;;;;;;;;;;13.65;56.36;100562.41;5003430;28;1975;-60
2021/10/03 06:23:45;;;;;;;;;;;;;;;13.76;56.24;100561.56;5011917;28;814;-60
2021/10/03 06:26:14;;;;;;;;;;;;;;;13.92;55.75;100573.00;5011846;28;800;-60
2021/10/03 06:31:45;;;;;;;;;;;;;;;14.02;54.99;100569.38;5012042;28;660;-60
2021/10/03 06:34:12;;;;;;;;;;;;;;;14.22;54.66;100577.16;5011582;28;891;-60
2021/10/03 06:36:38;;;;;;;;;;;;;;;14.42;54.23;100567.09;5011718;28;803;-60
2021/10/03 06:39:04;;;;;;;;;;;;;;;14.65;53.35;100572.03;5011784;28;902;-60
2021/10/03 06:41:34;;;;;;;;;;;;;;;14.88;52.58;100570.66;5014595;28;1926;-60
2021/10/03 06:56:11;;;;;;;;;;;;;;;16.84;46.56;100574.69;5015624;28;660;-61
2021/10/03 06:58:39;;;;;;;;;;;;;;;16.51;47.17;100584.78;5015416;28;823;-61
2021/10/03 07:01:06;;;;;;;;;;;;;;;16.61;47.44;100574.66;5015584;28;1890;-60
2021/10/03 07:03:31;;;;;;;;;;;;;;;16.93;46.13;100571.31;5015679;28;772;-60
2021/10/03 07:05:57;;;;;;;;;;;;;;;16.92;46.53;100578.91;5015072;28;795;-60
2021/10/03 07:08:36;;;;;;;;;;;;;;;16.93;45.90;100574.91;5015226;28;815;-60
2021/10/03 07:11:04;;;;;;;;;;;;;;;17.07;45.89;100568.28;5014971;28;802;-60
2021/10/03 07:13:31;;;;;;;;;;;;;;;17.17;45.63;100572.06;5015288;28;826;-61
2021/10/03 07:15:56;;;;;;;;;;;;;;;17.54;44.97;100572.91;5014787;28;920;-60
2021/10/03 07:24:56;;;;;;;;;;;;;;;17.74;44.35;100587.63;5015103;28;632;-61
2021/10/03 07:27:26;;;;;;;;;;;;;;;17.77;43.85;100597.16;5014970;28;873;-61
2021/10/03 07:29:54;;;;;;;;;;;;;;;17.83;44.10;100587.06;5014665;28;790;-60
2021/10/03 07:32:20;;;;;;;;;;;;;;;17.86;43.49;100604.97;4997045;28;1459;-60
2021/10/03 07:34:46;;;;;;;;;;;;;;;17.54;44.09;100595.28;5014506;28;851;-61
2021/10/03 07:37:12;;;;;;;;;;;;;;;17.76;43.76;100596.38;5014822;28;803;-60
2021/10/03 07:39:39;;;;;;;;;;;;;;;17.71;43.98;100596.91;4996755;28;1977;-60
2021/10/03 07:42:09;;;;;;;;;;;;;;;17.83;43.52;100600.28;5014449;28;803;-61
2021/10/03 07:44:36;;;;;;;;;;;;;;;17.81;43.69;100605.47;5014311;28;865;-60
2021/10/03 07:47:04;;;;;;;;;;;;;;;17.84;43.45;100610.25;5014318;28;839;-61
2021/10/03 08:01:42;;;;;;;;;;;;;;;18.39;42.17;100610.56;5014379;28;1894;-61
2021/10/03 08:04:08;;;;;;;;;;;;;;;18.73;42.00;100608.13;5014119;28;846;-61
2021/10/03 08:06:35;;;;;;;;;;;;;;;18.89;41.33;100610.13;5014109;28;870;-61
2021/10/03 08:09:03;;;;;;;;;;;;;;;19.01;40.35;100605.84;5014113;28;826;-60
2021/10/03 08:11:29;;;;;;;;;;;;;;;18.82;41.15;100615.13;5013948;28;870;-61
2021/10/03 08:13:58;;;;;;;;;;;;;;;18.78;41.17;100609.63;5013898;28;815;-60
2021/10/03 08:16:25;;;;;;;;;;;;;;;18.78;41.34;100601.22;5013907;28;901;-60
2021/10/03 08:18:57;;;;;;;;;;;;;;;18.93;40.43;100599.63;5013789;28;866;-61
2021/10/03 08:21:26;;;;;;;;;;;;;;;18.84;40.51;100604.25;5013357;28;1950;-60
2021/10/03 08:23:54;;;;;;;;;;;;;;;18.75;40.75;100604.88;5013628;28;795;-61
2021/10/03 08:26:22;;;;;;;;;;;;;;;18.76;41.11;100604.44;5013681;28;849;-60
2021/10/03 08:28:47;;;;;;;;;;;;;;;19.05;40.35;100603.69;5013560;28;802;-61
2021/10/03 08:31:14;;;;;;;;;;;;;;;19.25;40.51;100606.38;5013687;28;855;-61
2021/10/03 08:33:39;;;;;;;;;;;;;;;19.46;39.23;100601.38;5013476;28;850;-61
2021/10/03 08:36:06;;;;;;;;;;;;;;;19.15;39.81;100605.41;5013280;28;815;-61
2021/10/03 08:38:32;;;;;;;;;;;;;;;19.02;39.89;100606.59;5013357;28;974;-61
2021/10/03 08:41:01;;;;;;;;;;;;;;;18.97;39.85;100605.13;5013184;28;1902;-61
2021/10/03 08:43:29;;;;;;;;;;;;;;;19.17;39.88;100607.78;5013168;28;795;-61
2021/10/03 08:45:57;;;;;;;;;;;;;;;19.26;39.64;100607.94;5013192;28;921;-61
2021/10/03 08:48:27;;;;;;;;;;;;;;;19.20;39.50;100615.28;5013240;28;854;-61
2021/10/03 08:51:22;;;;;;;;;;;;;;;19.12;40.16;100611.13;5013074;28;803;-61
2021/10/03 08:53:49;;;;;;;;;;;;;;;19.38;39.55;100604.38;5013402;28;837;-61
2021/10/03 08:56:16;;;;;;;;;;;;;;;19.55;38.93;100601.53;5013307;28;788;-61
2021/10/03 08:58:43;;;;;;;;;;;;;;;19.45;39.76;100600.59;5013237;28;847;-60
2021/10/03 09:01:13;;;;;;;;;;;;;;;19.60;39.80;100600.97;5013139;28;1886;-61
2021/10/03 09:03:40;;;;;;;;;;;;;;;19.79;39.24;100600.00;4994873;28;799;-60
2021/10/03 09:06:07;;;;;;;;;;;;;;;19.72;38.69;100599.44;5012650;28;873;-60
2021/10/03 09:08:38;;;;;;;;;;;;;;;19.44;39.04;100589.81;5012826;28;839;-60
2021/10/03 09:11:09;;;;;;;;;;;;;;;19.49;39.33;100597.69;5012722;28;802;-60
2021/10/03 09:13:37;;;;;;;;;;;;;;;19.29;39.31;100592.25;4994998;28;1293;-61
2021/10/03 09:16:10;;;;;;;;;;;;;;;19.17;39.96;100590.97;5012642;28;1048;-60
2021/10/03 09:18:40;;;;;;;;;;;;;;;19.46;39.75;100587.34;5012675;28;846;-60
2021/10/03 09:21:08;;;;;;;;;;;;;;;19.37;39.13;100593.59;5012557;28;1886;-61
2021/10/03 09:23:36;;;;;;;;;;;;;;;19.14;39.55;100603.84;5012957;28;890;-60
2021/10/03 09:26:09;;;;;;;;;;;;;;;19.44;39.27;100596.22;5012722;28;815;-61
2021/10/03 09:38:14;;;;;;;;;;;;;;;19.38;38.89;100600.81;5012630;28;871;-60
2021/10/03 09:40:40;;;;;;;;;;;;;;;19.44;38.72;100599.03;5012208;28;1906;-60
2021/10/03 09:43:07;;;;;;;;;;;;;;;19.43;38.53;100596.66;5012044;28;802;-61
2021/10/03 09:45:37;;;;;;;;;;;;;;;19.58;38.73;100592.97;5012337;28;1029;-60
2021/10/03 09:48:05;;;;;;;;;;;;;;;19.69;37.94;100592.66;5012440;28;819;-60
2021/10/03 09:50:32;;;;;;;;;;;;;;;19.68;38.09;100585.50;5012245;28;795;-60
2021/10/03 09:53:00;;;;;;;;;;;;;;;19.96;37.46;100585.88;4994539;28;1200;-60
2021/10/03 09:55:27;;;;;;;;;;;;;;;20.17;37.62;100587.22;5012002;28;819;-61
2021/10/03 09:57:54;;;;;;;;;;;;;;;20.05;37.50;100588.03;4994397;28;1189;-60
2021/10/03 10:00:23;;;;;;;;;;;;;;;20.06;36.94;100584.00;5011841;28;1910;-61
2021/10/03 10:02:50;;;;;;;;;;;;;;;19.92;37.61;100582.41;5011951;28;854;-60
2021/10/03 10:05:22;;;;;;;;;;;;;;;20.04;37.32;100583.66;4994256;28;1394;-61
2021/10/03 10:07:48;;;;;;;;;;;;;;;20.07;37.44;100579.94;5011617;28;862;-60
2021/10/03 10:10:15;;;;;;;;;;;;;;;20.27;37.07;100582.50;5011826;28;897;-61
2021/10/03 10:12:57;;;;;;;;;;;;;;;20.18;37.01;100574.75;4994200;28;1228;-61
2021/10/03 10:15:25;;;;;;;;;;;;;;;20.25;37.31;100576.53;5011168;28;843;-61
2021/10/03 10:17:53;;;;;;;;;;;;;;;20.62;36.75;100580.56;5011736;28;889;-60
2021/10/03 10:20:22;;;;;;;;;;;;;;;20.88;36.53;100572.84;5011489;28;1957;-61
2021/10/03 10:22:59;;;;;;;;;;;;;;;20.99;36.23;100573.25;5011921;28;893;-60
2021/10/03 10:25:42;;;;;;;;;;;;;;;21.18;35.22;100573.38;5011762;28;850;-61
2021/10/03 10:28:12;;;;;;;;;;;;;;;20.89;36.46;100565.19;5011732;28;866;-61
2021/10/03 10:42:50;;;;;;;;;;;;;;;21.53;35.52;100548.81;5011845;28;606;-61
2021/10/03 10:45:35;;;;;;;;;;;;;;;21.57;35.61;100543.84;5011574;28;866;-61
2021/10/03 10:48:08;;;;;;;;;;;;;;;21.70;34.82;100545.75;5011558;28;803;-61
2021/10/03 10:50:35;;;;;;;;;;;;;;;21.52;34.83;100547.22;5011702;28;771;-61
2021/10/03 10:53:22;;;;;;;;;;;;;;;21.61;34.75;100538.84;5011476;28;784;-61
2021/10/03 10:56:06;;;;;;;;;;;;;;;21.63;34.73;100532.75;5011456;28;838;-60
2021/10/03 10:58:34;;;;;;;;;;;;;;;21.65;35.20;100537.91;5011474;28;878;-61
2021/10/03 11:01:11;;;;;;;;;;;;;;;21.91;34.59;100528.03;5011282;28;1902;-61
2021/10/03 11:03:45;;;;;;;;;;;;;;;21.92;34.44;100518.34;5011350;28;830;-61
2021/10/03 11:06:13;;;;;;;;;;;;;;;22.01;34.48;100523.22;5011333;28;885;-60
2021/10/03 11:08:58;;;;;;;;;;;;;;;22.01;34.43;100529.63;5011542;28;819;-60
2021/10/03 11:11:30;;;;;;;;;;;;;;;22.03;34.04;100517.91;5011248;28;791;-61
2021/10/03 11:13:58;;;;;;;;;;;;;;;22.00;34.08;100524.47;5011268;28;886;-61
2021/10/03 11:16:35;;;;;;;;;;;;;;;22.19;34.33;100517.63;5011399;28;935;-61
2021/10/03 11:19:03;;;;;;;;;;;;;;;22.34;33.81;100523.50;5011174;28;803;-61
2021/10/03 11:21:32;;;;;;;;;;;;;;;22.42;33.94;100521.13;5011223;28;1894;-60
2021/10/03 11:23:59;;;;;;;;;;;;;;;22.51;34.01;100518.34;5011452;28;861;-61
2021/10/03 11:26:26;;;;;;;;;;;;;;;22.90;33.57;100504.56;5012326;28;787;-61
2021/10/03 11:28:54;;;;;;;;;;;;;;;23.31;32.61;100510.78;5014842;28;800;-61
2021/10/03 11:31:33;;;;;;;;;;;;;;;23.50;31.84;100503.03;5014671;28;897;-61
2021/10/03 11:34:00;;;;;;;;;;;;;;;23.42;31.24;100499.00;5014569;28;819;-61
2021/10/03 11:36:27;;;;;;;;;;;;;;;23.17;31.57;100508.59;5014623;28;787;-61
2021/10/03 11:38:56;;;;;;;;;;;;;;;22.96;32.49;100502.69;4996858;28;898;-61
2021/10/03 11:41:23;;;;;;;;;;;;;;;23.22;31.58;100493.88;5014257;28;1962;-61
2021/10/03 11:43:49;;;;;;;;;;;;;;;23.30;31.52;100497.16;5014398;28;787;-61
2021/10/03 11:46:16;;;;;;;;;;;;;;;23.08;31.98;100498.13;5014347;28;854;-61
2021/10/03 11:48:43;;;;;;;;;;;;;;;23.27;32.22;100487.59;5014301;28;877;-61
2021/10/03 11:51:10;;;;;;;;;;;;;;;23.79;31.88;100488.38;5014232;28;858;-61
2021/10/03 11:53:47;;;;;;;;;;;;;;;24.04;31.40;100480.69;5014211;28;898;-61
2021/10/03 11:56:15;;;;;;;;;;;;;;;24.32;30.43;100483.34;5014222;28;905;-61
2021/10/03 11:58:42;;;;;;;;;;;;;;;24.37;30.04;100479.88;5014078;28;838;-61
2021/10/03 12:01:10;;;;;;;;;;;;;;;24.17;30.44;100480.47;5014091;28;1945;-61
2021/10/03 12:03:50;;;;;;;;;;;;;;;24.53;29.91;100476.63;5014058;28;854;-62
2021/10/03 12:06:17;;;;;;;;;;;;;;;24.39;29.72;100478.13;5013941;28;819;-62
2021/10/03 12:08:46;;;;;;;;;;;;;;;24.03;29.96;100476.34;5013941;28;821;-62
2021/10/03 12:11:14;;;;;;;;;;;;;;;23.83;30.16;100480.53;4996365;28;2044;-61
2021/10/03 12:13:40;;;;;;;;;;;;;;;24.01;30.43;100473.22;5014035;28;827;-61
2021/10/03 12:16:12;;;;;;;;;;;;;;;24.21;29.69;100476.19;5014019;28;1006;-62
2021/10/03 12:18:41;;;;;;;;;;;;;;;24.00;30.23;100471.63;5013774;28;878;-59
2021/10/03 12:21:08;;;;;;;;;;;;;;;24.12;30.05;100467.03;5013409;28;1949;-59
2021/10/03 12:23:40;;;;;;;;;;;;;;;24.03;30.25;100462.22;5013683;28;854;-62
2021/10/03 12:26:18;;;;;;;;;;;;;;;24.57;29.70;100463.09;5013664;28;811;-62
2021/10/03 12:28:52;;;;;;;;;;;;;;;25.17;28.99;100460.31;4995914;28;1216;-59
2021/10/03 12:31:37;;;;;;;;;;;;;;;25.31;28.80;100462.38;5013539;28;914;-62
2021/10/03 12:34:08;;;;;;;;;;;;;;;25.16;28.66;100459.53;5013453;28;803;-62
2021/10/03 12:36:35;;;;;;;;;;;;;;;24.72;28.95;100468.00;4995815;28;1169;-62
2021/10/03 12:39:01;;;;;;;;;;;;;;;24.38;29.41;100470.91;5012771;28;882;-62
2021/10/03 12:41:28;;;;;;;;;;;;;;;24.21;29.46;100462.06;5013256;28;1910;-62
2021/10/03 12:43:55;;;;;;;;;;;;;;;24.56;29.49;100455.88;5013300;28;816;-62
2021/10/03 12:46:23;;;;;;;;;;;;;;;24.98;28.65;100456.91;5013316;28;893;-62
2021/10/03 12:48:51;;;;;;;;;;;;;;;25.26;28.69;100454.56;4995634;28;874;-62
2021/10/03 12:51:18;;;;;;;;;;;;;;;25.37;27.98;100451.13;5013099;28;794;-62
2021/10/03 12:53:44;;;;;;;;;;;;;;;24.76;28.44;100454.44;5013447;28;846;-62
2021/10/03 12:56:11;;;;;;;;;;;;;;;24.49;29.20;100453.41;5013350;28;830;-62
2021/10/03 12:58:39;;;;;;;;;;;;;;;24.79;28.61;100442.97;5013040;28;806;-62
2021/10/03 13:01:05;;;;;;;;;;;;;;;25.03;28.46;100448.53;5012925;28;1949;-62
2021/10/03 13:03:34;;;;;;;;;;;;;;;25.29;28.26;100445.13;5012923;28;850;-62
2021/10/03 13:06:01;;;;;;;;;;;;;;;25.37;28.27;100437.78;5013088;28;866;-62
2021/10/03 13:08:27;;;;;;;;;;;;;;;25.52;28.11;100446.25;4995205;28;898;-62
2021/10/03 13:10:54;;;;;;;;;;;;;;;25.31;27.85;100445.41;5012839;28;822;-62
2021/10/03 13:13:21;;;;;;;;;;;;;;;24.79;28.19;100454.28;5012674;28;879;-62
2021/10/03 13:15:48;;;;;;;;;;;;;;;24.65;28.83;100447.31;5012660;28;1020;-62
2021/10/03 13:18:15;;;;;;;;;;;;;;;24.51;28.46;100462.19;5012861;28;806;-59
2021/10/03 13:20:41;;;;;;;;;;;;;;;24.55;28.70;100457.13;5012307;28;1882;-59
2021/10/03 13:23:09;;;;;;;;;;;;;;;24.49;28.45;100456.25;5012555;28;804;-59
2021/10/03 13:25:36;;;;;;;;;;;;;;;24.14;28.75;100462.44;5012542;28;803;-59
2021/10/03 13:28:03;;;;;;;;;;;;;;;24.01;29.14;100451.41;5012486;28;851;-59
2021/10/03 13:30:30;;;;;;;;;;;;;;;24.15;29.08;100444.22;5012500;28;807;-62
2021/10/03 13:32:57;;;;;;;;;;;;;;;23.96;29.03;100449.25;5012628;28;814;-62
2021/10/03 13:35:24;;;;;;;;;;;;;;;24.03;29.27;100462.22;5012382;28;834;-62
2021/10/03 13:37:50;;;;;;;;;;;;;;;24.50;28.56;100449.34;5012176;28;807;-62
2021/10/03 13:40:20;;;;;;;;;;;;;;;24.43;28.27;100458.94;5012356;28;1968;-62
2021/10/03 13:42:47;;;;;;;;;;;;;;;24.61;28.55;100457.25;5012225;28;913;-62
2021/10/03 13:45:14;;;;;;;;;;;;;;;25.01;28.15;100455.94;5012166;28;795;-62
2021/10/03 13:47:42;;;;;;;;;;;;;;;24.70;27.88;100462.03;5012247;28;894;-62
2021/10/03 13:50:12;;;;;;;;;;;;;;;24.11;28.42;100449.31;5012063;28;831;-62
2021/10/03 13:52:38;;;;;;;;;;;;;;;23.95;28.82;100456.13;5012151;28;886;-62
2021/10/03 13:55:06;;;;;;;;;;;;;;;23.58;28.82;100452.72;5011999;28;846;-63
2021/10/03 13:57:33;;;;;;;;;;;;;;;23.17;29.51;100455.03;5012032;28;965;-62
2021/10/03 13:59:58;;;;;;;;;;;;;;;23.14;29.54;100453.19;4994210;28;1963;-62
2021/10/03 14:02:25;;;;;;;;;;;;;;;23.32;29.73;100453.13;5012023;28;890;-62
2021/10/03 14:04:52;;;;;;;;;;;;;;;23.38;29.50;100453.25;5011953;28;795;-62
2021/10/03 14:07:19;;;;;;;;;;;;;;;23.34;29.49;100456.25;5011849;28;849;-62
2021/10/03 14:09:46;;;;;;;;;;;;;;;23.37;29.68;100444.00;5012177;28;838;-62
2021/10/03 14:12:13;;;;;;;;;;;;;;;23.36;29.89;100448.06;5011862;28;839;-62
2021/10/03 14:14:40;;;;;;;;;;;;;;;22.82;29.78;100453.38;5011818;28;815;-62
2021/10/03 14:17:06;;;;;;;;;;;;;;;22.49;30.10;100455.25;5012002;28;999;-62
2021/10/03 14:19:34;;;;;;;;;;;;;;;22.43;30.38;100463.56;5011775;28;795;-62
2021/10/03 14:22:01;;;;;;;;;;;;;;;22.50;30.58;100459.66;5011433;28;1906;-62
2021/10/03 14:24:29;;;;;;;;;;;;;;;22.47;30.71;100458.56;5011725;28;826;-62
2021/10/03 14:26:56;;;;;;;;;;;;;;;22.49;30.72;100467.34;5012004;28;850;-62
2021/10/03 14:29:23;;;;;;;;;;;;;;;22.30;30.44;100457.31;5011628;28;890;-62
2021/10/03 14:31:50;;;;;;;;;;;;;;;22.11;30.86;100464.91;5011666;28;843;-62
2021/10/03 14:34:17;;;;;;;;;;;;;;;22.03;30.99;100459.56;5011632;28;823;-62
2021/10/03 14:36:44;;;;;;;;;;;;;;;21.94;30.83;100461.59;5011624;28;870;-62
2021/10/03 14:39:10;;;;;;;;;;;;;;;21.78;31.03;100459.81;5011520;28;814;-62
2021/10/03 14:41:36;;;;;;;;;;;;;;;21.79;31.14;100462.19;5011559;28;1968;-62
2021/10/03 14:44:03;;;;;;;;;;;;;;;21.80;31.09;100469.34;5011504;28;894;-62
2021/10/03 14:46:30;;;;;;;;;;;;;;;21.68;31.41;100469.47;5011557;28;877;-62
2021/10/03 14:48:57;;;;;;;;;;;;;;;21.44;31.39;100466.41;5011497;28;862;-63
2021/10/03 14:51:25;;;;;;;;;;;;;;;21.23;32.06;100463.19;5011449;28;886;-62
2021/10/03 14:53:52;;;;;;;;;;;;;;;21.03;32.11;100465.56;5011505;28;827;-62
2021/10/03 14:56:19;;;;;;;;;;;;;;;20.86;32.67;100462.94;5011452;28;787;-62
2021/10/03 14:58:47;;;;;;;;;;;;;;;20.90;32.96;100460.78;5011397;28;815;-62
2021/10/03 15:01:14;;;;;;;;;;;;;;;20.76;32.77;100469.72;5012071;28;1890;-62
2021/10/03 15:03:40;;;;;;;;;;;;;;;20.58;33.18;100478.81;5015193;28;807;-62
2021/10/03 15:06:08;;;;;;;;;;;;;;;20.45;33.42;100475.25;4997532;28;1255;-62
2021/10/03 15:08:35;;;;;;;;;;;;;;;;;;5014977;28;889;-62
2021/10/03 15:11:02;;;;;;;;;;;;;;;20.19;33.92;100490.13;5015049;28;925;-62
2021/10/03 15:13:30;;;;;;;;;;;;;;;19.97;34.33;100484.44;5014913;28;854;-61
2021/10/03 15:15:57;;;;;;;;;;;;;;;19.80;34.59;100485.81;5014959;28;995;-62
2021/10/03 15:18:24;;;;;;;;;;;;;;;19.68;34.89;100489.38;5014813;28;815;-62
2021/10/03 15:20:51;;;;;;;;;;;;;;;19.43;35.48;100490.91;5014613;28;1890;-62
2021/10/03 15:23:18;;;;;;;;;;;;;;;19.15;36.11;100492.56;5014813;28;807;-62
2021/10/03 15:25:45;;;;;;;;;;;;;;;18.83;36.70;100494.25;5014819;28;863;-62
2021/10/03 15:28:13;;;;;;;;;;;;;;;18.54;37.29;100495.03;5014639;28;810;-62
2021/10/03 15:30:41;;;;;;;;;;;;;;;18.24;38.09;100498.97;5014648;28;796;-62
2021/10/03 15:33:11;;;;;;;;;;;;;;;17.85;38.61;100495.16;5014856;28;831;-62
2021/10/03 15:35:38;;;;;;;;;;;;;;;17.47;39.21;100492.78;5014885;28;818;-62
2021/10/03 15:38:05;;;;;;;;;;;;;;;17.10;40.23;100496.78;5014620;28;847;-62
2021/10/03 15:40:34;;;;;;;;;;;;;;;16.74;41.04;100497.47;5014637;28;1898;-62
2021/10/03 15:43:02;;;;;;;;;;;;;;;16.40;42.19;100503.28;5014417;28;870;-61
2021/10/03 15:45:29;;;;;;;;;;;;;;;16.11;42.64;100507.34;5014360;28;815;-62
2021/10/03 15:47:56;;;;;;;;;;;;;;;15.84;43.27;100503.81;5014418;28;851;-61
2021/10/03 15:50:23;;;;;;;;;;;;;;;15.56;43.86;100505.78;5014340;28;866;-61
2021/10/03 15:52:51;;;;;;;;;;;;;;;15.24;45.16;100515.34;5014351;28;803;-61
2021/10/03 15:55:17;;;;;;;;;;;;;;;14.90;46.02;100515.34;5014278;28;819;-61
2021/10/03 15:57:44;;;;;;;;;;;;;;;14.61;46.55;100521.22;5014136;28;835;-61
2021/10/03 16:00:11;;;;;;;;;;;;;;;14.47;47.66;100527.69;4996474;28;1958;-61
2021/10/03 16:02:38;;;;;;;;;;;;;;;14.26;48.25;100525.88;5014099;28;846;-61
2021/10/03 16:05:07;;;;;;;;;;;;;;;14.17;49.35;100531.13;5014042;28;853;-61
2021/10/03 16:07:34;;;;;;;;;;;;;;;14.03;49.59;100532.03;5013892;28;962;-61
2021/10/03 16:10:01;;;;;;;;;;;;;;;13.89;49.72;100541.25;4996376;28;1399;-61
2021/10/03 16:12:28;;;;;;;;;;;;;;;13.80;50.19;100538.13;4995463;28;1320;-61
2021/10/03 16:14:56;;;;;;;;;;;;;;;13.87;51.40;100545.66;5013586;28;784;-61
2021/10/03 16:17:23;;;;;;;;;;;;;;;13.79;52.57;100541.34;5014053;28;984;-62
2021/10/03 16:19:50;;;;;;;;;;;;;;;13.67;53.49;100542.56;5013764;28;859;-62
2021/10/03 16:22:17;;;;;;;;;;;;;;;13.45;53.65;100541.91;5013503;28;1882;-62
2021/10/03 16:24:44;;;;;;;;;;;;;;;13.20;54.16;100539.22;5013660;28;807;-62
2021/10/03 16:27:12;;;;;;;;;;;;;;;12.98;54.51;100546.81;5013658;28;885;-62
2021/10/03 16:29:39;;;;;;;;;;;;;;;12.80;54.88;100536.56;5013612;28;849;-62
2021/10/03 16:32:06;;;;;;;;;;;;;;;12.67;55.50;100546.47;5013809;28;818;-61
2021/10/03 16:34:33;;;;;;;;;;;;;;;12.56;56.35;100551.25;5013498;28;862;-61
2021/10/03 16:36:59;;;;;;;;;;;;;;;12.53;56.94;100557.59;5013339;28;846;-61
2021/10/03 16:39:26;;;;;;;;;;;;;;;12.56;57.30;100559.56;5013422;28;811;-61
2021/10/03 16:41:54;;;;;;;;;;;;;;;12.58;57.05;100554.41;5013257;28;1907;-62
2021/10/03 16:44:20;;;;;;;;;;;;;;;12.56;57.52;100559.56;5013410;28;842;-61
2021/10/03 16:46:47;;;;;;;;;;;;;;;12.52;57.70;100558.78;5013213;28;869;-61
2021/10/03 16:49:18;;;;;;;;;;;;;;;12.48;58.15;100552.44;5013213;28;811;-61
2021/10/03 16:51:48;;;;;;;;;;;;;;;12.45;58.34;100565.13;5013197;28;838;-61
2021/10/03 16:54:15;;;;;;;;;;;;;;;12.36;58.96;100559.97;5011245;28;1348;-61
2021/10/03 16:56:43;;;;;;;;;;;;;;;12.25;59.49;100556.44;5013077;28;877;-61
2021/10/03 16:59:11;;;;;;;;;;;;;;;12.16;60.09;100558.78;5012988;28;874;-61
2021/10/03 17:01:38;;;;;;;;;;;;;;;12.07;60.38;100558.38;5012931;28;1951;-61
2021/10/03 17:04:05;;;;;;;;;;;;;;;11.91;61.19;100567.88;5012900;28;842;-61
2021/10/03 17:06:31;;;;;;;;;;;;;;;11.84;62.27;100568.63;5013056;28;881;-61
2021/10/03 17:08:58;;;;;;;;;;;;;;;11.88;63.04;100570.59;5012819;28;839;-61
2021/10/03 17:11:25;;;;;;;;;;;;;;;11.81;63.94;100579.69;5012896;28;815;-61
2021/10/03 17:13:52;;;;;;;;;;;;;;;11.72;64.58;100577.28;5012686;28;847;-61
2021/10/03 17:16:19;;;;;;;;;;;;;;;11.70;65.41;100587.19;4995054;28;1374;-61
2021/10/03 17:18:46;;;;;;;;;;;;;;;11.64;66.38;100583.97;4995058;28;1244;-61
2021/10/03 17:21:13;;;;;;;;;;;;;;;11.70;66.43;100587.97;5012409;28;1953;-61
2021/10/03 17:23:40;;;;;;;;;;;;;;;11.71;67.16;100599.81;5012381;28;811;-61
2021/10/03 17:26:07;;;;;;;;;;;;;;;11.71;66.71;100594.28;5012535;28;870;-61
2021/10/03 17:28:34;;;;;;;;;;;;;;;11.69;67.70;100597.44;5012674;28;866;-61
2021/10/03 17:31:01;;;;;;;;;;;;;;;11.67;67.63;100604.56;4994796;28;874;-61
2021/10/03 17:33:34;;;;;;;;;;;;;;;11.61;67.88;100613.25;5012486;28;807;-61
2021/10/03 17:36:04;;;;;;;;;;;;;;;11.50;68.50;100606.88;5012531;28;869;-61
2021/10/03 17:38:35;;;;;;;;;;;;;;;11.48;69.04;100609.25;5012383;28;850;-61
2021/10/03 17:41:03;;;;;;;;;;;;;;;11.48;69.12;100603.72;5012242;28;1966;-61
2021/10/03 17:43:30;;;;;;;;;;;;;;;11.51;69.24;100607.69;5012240;28;869;-61
2021/10/03 17:45:58;;;;;;;;;;;;;;;11.47;69.71;100607.66;4994634;28;1188;-61
2021/10/03 17:48:25;;;;;;;;;;;;;;;11.40;69.46;100613.16;5012491;28;862;-61
2021/10/03 17:50:52;;;;;;;;;;;;;;;11.31;69.73;100616.28;4994516;28;850;-61
2021/10/03 17:53:19;;;;;;;;;;;;;;;11.25;69.79;100612.28;5012111;28;815;-61
2021/10/03 17:55:46;;;;;;;;;;;;;;;11.21;70.36;100611.47;5012148;28;850;-61
2021/10/03 17:58:12;;;;;;;;;;;;;;;11.19;70.44;100611.88;5012183;28;867;-61
2021/10/03 18:00:40;;;;;;;;;;;;;;;11.20;70.66;100619.00;5011999;28;1886;-61
2021/10/03 18:03:07;;;;;;;;;;;;;;;11.19;70.90;100622.94;5011973;28;858;-61
2021/10/03 18:05:34;;;;;;;;;;;;;;;11.17;70.83;100625.28;5011895;28;847;-61
2021/10/03 18:08:02;;;;;;;;;;;;;;;11.17;71.68;100621.72;5011993;28;933;-61
2021/10/03 18:10:29;;;;;;;;;;;;;;;11.21;72.06;100619.78;5011938;28;885;-61
2021/10/03 18:12:56;;;;;;;;;;;;;;;11.28;72.39;100619.81;5011866;28;877;-61
2021/10/03 18:15:24;;;;;;;;;;;;;;;11.42;72.49;100617.13;5011845;28;807;-61
2021/10/03 18:17:49;;;;;;;;;;;;;;;11.57;72.87;100619.97;5012202;28;953;-61
2021/10/03 18:20:16;;;;;;;;;;;;;;;11.60;72.43;100619.94;5011627;28;1881;-61
2021/10/03 18:22:43;;;;;;;;;;;;;;;11.64;73.33;100625.50;5011552;28;1348;-61
2021/10/03 18:25:10;;;;;;;;;;;;;;;11.79;74.67;100629.13;5011797;28;807;-61
2021/10/03 18:27:37;;;;;;;;;;;;;;;11.97;74.92;100632.78;5011691;28;866;-61
2021/10/03 18:30:06;;;;;;;;;;;;;;;12.03;75.27;100631.22;5011994;28;887;-61
2021/10/03 18:32:33;;;;;;;;;;;;;;;12.22;75.42;100629.25;5011649;28;893;-61
2021/10/03 18:35:00;;;;;;;;;;;;;;;12.24;75.24;100632.44;5010313;28;866;-61
2021/10/03 18:37:27;;;;;;;;;;;;;;;12.28;75.95;100627.69;5014418;28;854;-61
2021/10/03 18:39:53;;;;;;;;;;;;;;;12.36;76.28;100623.75;5015646;28;823;-61
2021/10/03 18:42:20;;;;;;;;;;;;;;;12.46;76.51;100624.94;5015556;28;1976;-61
2021/10/03 18:44:48;;;;;;;;;;;;;;;12.41;76.33;100634.44;5015522;28;838;-61
2021/10/03 18:47:19;;;;;;;;;;;;;;;12.40;76.69;100624.53;4997935;28;1228;-61
2021/10/03 18:49:46;;;;;;;;;;;;;;;12.37;76.51;100624.53;5015592;28;838;-61
2021/10/03 18:52:13;;;;;;;;;;;;;;;12.33;76.98;100629.28;5015653;28;862;-61
2021/10/03 18:54:39;;;;;;;;;;;;;;;12.30;77.04;100633.63;5015385;28;874;-61
2021/10/03 18:57:06;;;;;;;;;;;;;;;12.38;78.43;100629.69;5015368;28;819;-61
2021/10/03 18:59:34;;;;;;;;;;;;;;;12.45;77.79;100621.38;4997665;28;812;-61
2021/10/03 19:02:03;;;;;;;;;;;;;;;12.39;77.82;100616.63;5015181;28;1969;-61
2021/10/03 19:04:31;;;;;;;;;;;;;;;12.34;78.17;100626.13;5015010;28;874;-61
2021/10/03 19:06:58;;;;;;;;;;;;;;;12.28;78.33;100627.69;4997575;28;1157;-61
2021/10/03 19:09:33;;;;;;;;;;;;;;;12.21;78.83;100622.94;5015119;28;862;-61
2021/10/03 19:12:00;;;;;;;;;;;;;;;12.21;79.40;100625.69;4997387;28;1312;-61
2021/10/03 19:14:27;;;;;;;;;;;;;;;12.31;79.20;100626.09;5015119;28;839;-61
2021/10/03 19:16:54;;;;;;;;;;;;;;;12.38;79.27;100626.13;5015136;28;904;-61
2021/10/03 19:19:21;;;;;;;;;;;;;;;12.38;78.77;100626.13;5014910;28;881;-61
2021/10/03 19:21:47;;;;;;;;;;;;;;;12.19;79.20;100628.06;5014608;28;1967;-61
2021/10/03 19:24:15;;;;;;;;;;;;;;;12.03;79.35;100633.19;5014928;28;819;-61
2021/10/03 19:26:41;;;;;;;;;;;;;;;11.85;79.50;100631.13;5014793;28;854;-61
2021/10/03 19:29:08;;;;;;;;;;;;;;;11.69;79.87;100627.91;5014750;28;833;-61
2021/10/03 19:31:39;;;;;;;;;;;;;;;11.53;80.63;100630.22;5014699;28;874;-61
2021/10/03 19:34:06;;;;;;;;;;;;;;;11.49;81.33;100632.97;5014583;28;898;-61
2021/10/03 19:36:33;;;;;;;;;;;;;;;11.42;80.88;100632.94;5014616;28;875;-61
2021/10/03 19:39:00;;;;;;;;;;;;;;;11.26;80.93;100633.25;5014617;28;866;-61
2021/10/03 19:41:30;;;;;;;;;;;;;;;11.14;81.42;100636.34;5014475;28;1909;-61
2021/10/03 19:44:01;;;;;;;;;;;;;;;11.23;81.62;100632.03;5014408;28;847;-61
2021/10/03 19:46:30;;;;;;;;;;;;;;;11.27;81.73;100628.53;5014453;28;846;-61
2021/10/03 19:48:57;;;;;;;;;;;;;;;11.33;81.92;100636.06;5014199;28;799;-61